createdAt,value
2023-02-01T00:03:21.803Z,100663.34
2023-02-01T00:08:24.179Z,100681.75
2023-02-01T00:13:26.300Z,100665.84
2023-02-01T00:18:30.198Z,100674.03
2023-02-01T00:23:35.147Z,100658.31
2023-02-01T00:28:37.065Z,100648.63
2023-02-01T00:33:40.573Z,100653.19
2023-02-01T00:38:42.806Z,100652.34
2023-02-01T00:43:45.768Z,100683.00
2023-02-01T00:48:49.339Z,100673.19
2023-02-01T00:53:52.001Z,100676.41
2023-02-01T00:58:54.354Z,100664.13
2023-02-01T01:03:59.402Z,100677.28
2023-02-01T01:09:04.950Z,100661.56
2023-02-01T01:14:09.175Z,100669.47
2023-02-01T01:19:13.833Z,100668.66
2023-02-01T01:24:16.329Z,100660.00
2023-02-01T01:29:18.454Z,100671.31
2023-02-01T01:34:22.062Z,100672.13
2023-02-01T01:39:24.049Z,100658.91
2023-02-01T01:44:58.785Z,100657.19
2023-02-01T01:50:03.066Z,100656.31
2023-02-01T01:55:09.259Z,100653.63
2023-02-01T02:00:14.187Z,100650.00
2023-02-01T02:05:19.607Z,100652.78
2023-02-01T02:10:22.056Z,100661.41
2023-02-01T02:15:25.239Z,100660.50
2023-02-01T02:21:01.177Z,100656.03
2023-02-01T02:26:22.240Z,100647.47
2023-02-01T02:31:52.088Z,100644.91
2023-02-01T02:37:05.332Z,100656.31
2023-02-01T02:42:14.070Z,100645.84
2023-02-01T02:47:24.843Z,100639.81
2023-02-01T02:52:29.190Z,100637.28
2023-02-01T02:57:36.649Z,100636.41
2023-02-01T03:02:38.988Z,100621.41
2023-02-01T03:07:55.223Z,100623.13
2023-02-01T03:13:03.735Z,100620.56
2023-02-01T03:18:13.260Z,100605.47
2023-02-01T03:23:21.086Z,100610.88
2023-02-01T03:28:25.308Z,100604.75
2023-02-01T03:33:28.479Z,100579.34
2023-02-01T03:38:35.192Z,100585.47
2023-02-01T03:43:47.169Z,100574.88
2023-02-01T03:48:51.163Z,100583.69
2023-02-01T03:53:56.205Z,100588.09
2023-02-01T03:58:58.412Z,100588.16
2023-02-01T04:04:01.053Z,100583.84
2023-02-01T04:09:05.006Z,100575.97
2023-02-01T04:14:07.119Z,100574.28
2023-02-01T04:19:09.475Z,100564.63
2023-02-01T04:24:13.208Z,100561.09
2023-02-01T04:29:15.315Z,100569.97
2023-02-01T04:34:17.775Z,100549.78
2023-02-01T04:39:21.379Z,100559.50
2023-02-01T04:44:23.613Z,100554.19
2023-02-01T04:49:25.692Z,100555.97
2023-02-01T04:54:29.166Z,100546.31
2023-02-01T04:59:31.360Z,100550.72
2023-02-01T05:04:33.468Z,100528.78
2023-02-01T05:09:37.111Z,100531.41
2023-02-01T05:14:39.521Z,100532.22
2023-02-01T05:19:41.699Z,100528.81
2023-02-01T05:24:45.609Z,100525.25
2023-02-01T05:29:47.365Z,100525.25
2023-02-01T05:34:49.362Z,100516.50
2023-02-01T05:39:52.828Z,100515.59
2023-02-01T05:44:54.941Z,100514.75
2023-02-01T05:49:57.136Z,100511.25
2023-02-01T05:55:00.797Z,100493.66
2023-02-01T06:00:04.083Z,100491.06
2023-02-01T06:05:07.378Z,100491.88
2023-02-01T06:10:11.824Z,100482.28
2023-02-01T06:15:14.692Z,100482.28
2023-02-01T06:20:17.939Z,100477.88
2023-02-01T06:25:21.657Z,100467.38
2023-02-01T06:30:24.006Z,100469.94
2023-02-01T06:35:26.852Z,100448.94
2023-02-01T06:40:30.572Z,100457.72
2023-02-01T06:45:32.650Z,100456.81
2023-02-01T06:50:34.630Z,100444.56
2023-02-01T06:55:38.052Z,100436.66
2023-02-01T07:00:40.131Z,100432.25
2023-02-01T07:05:42.504Z,100439.31
2023-02-01T07:10:46.001Z,100431.44
2023-02-01T07:15:48.084Z,100436.66
2023-02-01T07:20:51.826Z,100416.47
2023-02-01T07:25:56.473Z,100408.63
2023-02-01T07:31:03.932Z,100397.16
2023-02-01T07:36:08.233Z,100395.25
2023-02-01T07:41:11.881Z,100398.63
2023-02-01T07:46:13.950Z,100390.69
2023-02-01T07:51:18.318Z,100393.19
2023-02-01T07:56:22.007Z,100394.00
2023-02-01T08:01:26.824Z,100383.44
2023-02-01T08:06:31.238Z,100384.19
2023-02-01T08:11:34.895Z,100375.31
2023-02-01T08:16:37.429Z,100386.69
2023-02-01T08:21:39.736Z,100391.97
2023-02-01T08:26:43.836Z,100385.00
2023-02-01T08:31:45.722Z,100403.50
2023-02-01T08:36:47.701Z,100410.56
2023-02-01T08:41:51.308Z,100411.38
2023-02-01T08:46:53.404Z,100408.69
2023-02-01T08:51:58.467Z,100419.13
2023-02-01T08:57:04.343Z,100424.34
2023-02-01T09:02:06.533Z,100435.72
2023-02-01T09:07:09.274Z,100448.94
2023-02-01T09:12:12.908Z,100443.72
2023-02-01T09:17:15.212Z,100453.47
2023-02-01T09:22:17.048Z,100452.63
2023-02-01T09:27:21.021Z,100465.75
2023-02-01T09:32:24.387Z,100469.28
2023-02-01T09:37:27.020Z,100476.41
2023-02-01T09:42:47.624Z,100486.91
2023-02-01T09:47:56.480Z,100494.78
2023-02-01T09:53:03.379Z,100492.09
2023-02-01T09:58:13.753Z,100507.94
2023-02-01T10:03:15.569Z,100515.75
2023-02-01T10:08:27.324Z,100519.41
2023-02-01T10:13:46.880Z,100511.50
2023-02-01T10:19:11.299Z,100514.38
2023-02-01T10:24:24.203Z,100510.94
2023-02-01T10:29:35.652Z,100499.59
2023-02-01T10:34:37.677Z,100510.09
2023-02-01T10:39:39.990Z,100499.72
2023-02-01T10:44:46.059Z,100495.56
2023-02-01T10:49:55.790Z,100488.59
2023-02-01T10:55:13.197Z,100497.28
2023-02-01T11:00:23.207Z,100477.16
2023-02-01T11:05:28.798Z,100488.91
2023-02-01T11:10:37.661Z,100483.66
2023-02-01T11:15:44.744Z,100481.91
2023-02-01T11:20:48.686Z,100473.81
2023-02-01T11:25:53.035Z,100480.00
2023-02-01T11:31:00.041Z,100475.72
2023-02-01T11:36:07.545Z,100463.44
2023-02-01T11:41:15.162Z,100455.53
2023-02-01T11:46:20.333Z,100454.63
2023-02-01T11:51:38.937Z,100441.47
2023-02-01T11:56:53.039Z,100435.31
2023-02-01T12:02:34.207Z,100437.06
2023-02-01T12:07:55.769Z,100422.00
2023-02-01T12:13:10.713Z,100429.06
2023-02-01T12:18:47.059Z,100437.88
2023-02-01T12:24:12.767Z,100415.91
2023-02-01T12:29:36.673Z,100402.72
2023-02-01T12:35:17.755Z,100397.53
2023-02-01T12:40:36.333Z,100375.59
2023-02-01T12:45:42.569Z,100407.22
2023-02-01T12:50:50.402Z,100381.75
2023-02-01T12:55:56.469Z,100385.25
2023-02-01T13:01:02.886Z,100386.13
2023-02-01T13:06:12.004Z,100387.00
2023-02-01T13:11:20.499Z,100380.88
2023-02-01T13:16:26.013Z,100366.81
2023-02-01T13:21:35.146Z,100365.91
2023-02-01T13:26:39.385Z,100351.84
2023-02-01T13:33:51.598Z,100348.31
2023-02-01T13:38:20.420Z,100338.66
2023-02-01T13:43:35.942Z,100329.84
2023-02-01T13:48:43.503Z,100317.50
2023-02-01T13:53:48.583Z,100318.44
2023-02-01T13:58:52.530Z,100310.59
2023-02-01T14:03:56.744Z,100305.31
2023-02-01T14:09:32.439Z,100302.72
2023-02-01T14:14:44.941Z,100293.91
2023-02-01T14:19:47.974Z,100281.63
2023-02-01T14:24:51.985Z,100264.03
2023-02-01T14:29:59.109Z,100257.00
2023-02-01T14:35:03.426Z,100257.88
2023-02-01T14:40:17.523Z,100251.72
2023-02-01T14:45:51.268Z,100228.88
2023-02-01T14:51:12.897Z,100248.22
2023-02-01T14:56:19.370Z,100252.66
2023-02-01T15:01:25.353Z,100248.25
2023-02-01T15:06:40.156Z,100242.03
2023-02-01T15:11:57.152Z,100239.38
2023-02-01T15:17:00.890Z,100221.75
2023-02-01T15:22:03.234Z,100220.84
2023-02-01T15:27:06.692Z,100198.88
2023-02-01T15:32:29.904Z,100198.81
2023-02-01T15:37:32.961Z,100189.16
2023-02-01T15:42:35.990Z,100187.41
2023-02-01T15:47:39.143Z,100174.25
2023-02-01T15:52:42.875Z,100169.94
2023-02-01T15:57:44.962Z,100169.91
2023-02-01T16:02:55.662Z,100169.09
2023-02-01T16:08:01.959Z,100190.16
2023-02-01T16:13:03.802Z,100276.16
2023-02-01T16:18:07.499Z,100302.97
2023-02-01T16:23:10.932Z,100304.50
2023-02-01T16:28:12.890Z,100308.84
2023-02-01T16:33:20.194Z,100307.19
2023-02-01T16:38:23.045Z,100308.91
2023-02-01T16:43:26.593Z,100328.16
2023-02-01T16:48:32.212Z,100334.50
2023-02-01T16:59:19.675Z,100326.19
2023-02-01T17:04:23.379Z,100337.66
2023-02-01T17:09:25.518Z,100336.88
2023-02-01T17:14:27.871Z,100343.94
2023-02-01T17:19:56.347Z,100353.63
2023-02-01T17:24:58.807Z,100353.72
2023-02-01T17:30:00.658Z,100355.63
2023-02-01T17:35:04.603Z,100364.38
2023-02-01T17:40:07.817Z,100362.66
2023-02-01T17:45:23.732Z,100376.81
2023-02-01T17:50:30.853Z,100365.38
2023-02-01T17:55:35.643Z,100367.19
2023-02-01T18:00:53.005Z,100365.47
2023-02-01T18:05:57.735Z,100380.34
2023-02-01T18:11:01.806Z,100379.53
2023-02-01T18:16:04.166Z,100391.84
2023-02-01T18:21:09.001Z,100397.16
2023-02-01T18:26:13.049Z,100399.78
2023-02-01T18:31:22.411Z,100392.81
2023-02-01T18:36:27.060Z,100388.44
2023-02-01T18:41:29.396Z,100378.78
2023-02-01T18:46:35.226Z,100387.59
2023-02-01T18:51:38.622Z,100383.16
2023-02-01T18:56:40.505Z,100399.78
2023-02-01T19:01:44.769Z,100390.13
2023-02-01T19:06:48.999Z,100405.09
2023-02-01T19:11:51.521Z,100412.91
2023-02-01T19:16:53.544Z,100397.28
2023-02-01T19:21:57.240Z,100414.78
2023-02-01T19:26:59.499Z,100412.09
2023-02-01T19:32:01.594Z,100416.47
2023-02-01T19:37:04.803Z,100419.97
2023-02-01T19:42:07.105Z,100421.59
2023-02-01T19:47:09.174Z,100422.47
2023-02-01T19:52:12.678Z,100407.63
2023-02-01T19:57:17.668Z,100410.13
2023-02-01T20:02:18.830Z,100430.28
2023-02-01T20:07:23.056Z,100425.97
2023-02-01T20:12:25.223Z,100431.13
2023-02-01T20:17:29.774Z,100427.66
2023-02-01T20:22:33.292Z,100430.22
2023-02-01T20:27:36.171Z,100430.91
2023-02-01T20:32:47.425Z,100433.53
2023-02-01T20:37:55.597Z,100443.25
2023-02-01T20:42:58.736Z,100442.28
2023-02-01T20:48:02.924Z,100450.19
2023-02-01T20:53:06.585Z,100432.59
2023-02-01T20:58:08.414Z,100433.44
2023-02-01T21:03:10.649Z,100435.09
2023-02-01T21:08:14.360Z,100423.72
2023-02-01T21:13:16.702Z,100422.06
2023-02-01T21:18:18.875Z,100441.28
2023-02-01T21:23:22.555Z,100433.31
2023-02-01T21:28:25.085Z,100433.31
2023-02-01T21:33:27.484Z,100428.97
2023-02-01T21:38:31.235Z,100419.25
2023-02-01T21:43:33.600Z,100428.16
2023-02-01T21:49:03.682Z,100411.44
2023-02-01T21:54:00.200Z,100450.06
2023-02-01T21:59:02.504Z,100440.34
2023-02-01T22:04:05.095Z,100449.94
2023-02-01T22:09:15.901Z,100449.03
2023-02-01T22:14:18.569Z,100472.59
2023-02-01T22:19:20.828Z,100460.31
2023-02-01T22:24:24.461Z,100470.94
2023-02-01T22:29:26.613Z,100464.19
2023-02-01T22:34:28.666Z,100460.66
2023-02-01T22:39:32.225Z,100454.56
2023-02-01T22:44:34.012Z,100455.53
2023-02-01T22:49:36.228Z,100445.81
2023-02-01T22:54:39.967Z,100452.84
2023-02-01T22:59:42.098Z,100450.34
2023-02-01T23:04:44.301Z,100455.41
2023-02-01T23:09:47.380Z,100455.53
2023-02-01T23:14:49.671Z,100449.47
2023-02-01T23:19:57.961Z,100456.56
2023-02-01T23:25:01.709Z,100442.53
2023-02-01T23:30:04.345Z,100438.16
2023-02-01T23:35:07.301Z,100443.53
2023-02-01T23:40:12.466Z,100434.72
2023-02-01T23:45:14.259Z,100427.78
2023-02-01T23:50:16.936Z,100413.06
2023-02-01T23:55:20.373Z,100417.56
